Time;durP1;ratioP1;P1;durP2;ratioP2;P2;SDS_P1;SDS_P2;PMS_P1;PMS_P2;Temp;Humidity;BMP_temperature;BMP_pressure;BME280_temperature;BME280_humidity;BME280_pressure;Samples;Min_cycle;Max_cycle;Signal;HPM_P1;HPM_P2
2022/03/08 00:00:19;;;;;;;30.67;11.07;;;-1.70;99.90;;;;;;5038292;28;20124;-66
2022/03/08 00:02:45;;;;;;;30.58;10.85;;;-1.80;99.90;;;;;;5017832;28;20034;-66
2022/03/08 00:05:11;;;;;;;29.55;10.70;;;-1.80;99.90;;;;;;5030132;28;20503;-66
2022/03/08 00:07:37;;;;;;;28.35;10.70;;;-1.70;99.90;;;;;;5037229;28;20045;-65
2022/03/08 00:10:06;;;;;;;32.00;11.43;;;-1.70;99.90;;;;;;5040312;28;20044;-66
2022/03/08 00:12:31;;;;;;;34.10;11.77;;;-1.70;99.90;;;;;;5029042;28;20037;-64
2022/03/08 00:14:57;;;;;;;31.15;10.43;;;-1.70;99.90;;;;;;5031628;28;20075;-66
2022/03/08 00:17:23;;;;;;;30.55;10.05;;;-1.70;99.90;;;;;;5031482;28;20501;-66
2022/03/08 00:19:48;;;;;;;30.98;11.00;;;-1.70;99.90;;;;;;5026736;28;20029;-66
2022/03/08 00:22:14;;;;;;;30.77;10.48;;;-1.70;99.90;;;;;;5023302;28;20370;-66
2022/03/08 00:24:40;;;;;;;30.25;10.55;;;-1.60;99.90;;;;;;5022906;28;20034;-66
2022/03/08 00:27:05;;;;;;;27.10;10.40;;;-1.60;99.90;;;;;;5027609;28;20055;-66
2022/03/08 00:29:31;;;;;;;26.25;10.40;;;-1.60;99.90;;;;;;5022997;28;20033;-64
2022/03/08 00:31:57;;;;;;;28.77;10.02;;;-1.60;99.90;;;;;;5030614;28;20442;-66
2022/03/08 00:34:23;;;;;;;31.50;10.75;;;-1.50;99.90;;;;;;5030182;28;20037;-66
2022/03/08 00:36:48;;;;;;;28.23;10.27;;;-1.60;99.90;;;;;;5028118;28;20390;-66
2022/03/08 00:39:14;;;;;;;32.28;10.90;;;-1.60;99.90;;;;;;5029628;28;20467;-66
2022/03/08 00:41:40;;;;;;;26.95;9.90;;;-1.70;99.90;;;;;;5039857;28;20082;-66
2022/03/08 00:44:06;;;;;;;29.83;10.25;;;-1.70;99.90;;;;;;5033314;28;20372;-66
2022/03/08 00:46:32;;;;;;;29.58;10.85;;;-1.80;99.90;;;;;;5027424;28;20378;-64
2022/03/08 00:48:58;;;;;;;33.40;11.30;;;-1.80;99.90;;;;;;5029032;28;20139;-66
2022/03/08 00:51:24;;;;;;;29.42;10.07;;;-1.80;99.90;;;;;;5035634;28;20407;-66
2022/03/08 00:53:51;;;;;;;31.33;11.10;;;-1.90;99.90;;;;;;5048493;28;20501;-66
2022/03/08 00:56:16;;;;;;;30.15;9.98;;;-1.90;99.90;;;;;;5030062;28;20063;-65
2022/03/08 00:58:43;;;;;;;29.52;10.13;;;-2.00;99.90;;;;;;5028266;28;20077;-66
2022/03/08 01:01:08;;;;;;;29.00;10.43;;;-2.00;99.90;;;;;;5030756;28;20027;-66
2022/03/08 01:03:34;;;;;;;30.83;11.32;;;-2.00;99.90;;;;;;5042786;28;20447;-64
2022/03/08 01:06:00;;;;;;;30.67;11.23;;;-2.00;99.90;;;;;;5042677;28;20112;-66
2022/03/08 01:08:26;;;;;;;27.08;10.38;;;-2.00;99.90;;;;;;5028185;28;20029;-66
2022/03/08 01:10:52;;;;;;;33.65;10.45;;;-2.00;99.90;;;;;;5030925;28;20596;-66
2022/03/08 01:13:18;;;;;;;29.90;10.23;;;-1.90;99.90;;;;;;5014418;28;20065;-65
2022/03/08 01:15:44;;;;;;;25.05;10.05;;;-2.00;99.90;;;;;;5007198;28;20717;-66
2022/03/08 01:18:10;;;;;;;28.85;9.75;;;-2.00;99.90;;;;;;5022824;28;20091;-66
2022/03/08 01:20:35;;;;;;;32.72;10.88;;;-2.00;99.90;;;;;;5028553;28;20132;-64
2022/03/08 01:23:01;;;;;;;27.88;10.82;;;-2.00;99.90;;;;;;5023238;28;20045;-65
2022/03/08 01:25:27;;;;;;;29.08;10.38;;;-2.00;99.90;;;;;;5043540;28;20025;-65
2022/03/08 01:27:53;;;;;;;29.80;11.05;;;-2.00;99.90;;;;;;5023153;28;20065;-66
2022/03/08 01:30:21;;;;;;;28.50;10.48;;;-2.00;99.90;;;;;;5026217;28;20040;-65
2022/03/08 01:32:47;;;;;;;32.42;11.40;;;-2.10;99.90;;;;;;5040616;28;20358;-66
2022/03/08 01:35:14;;;;;;;33.50;11.05;;;-2.10;99.90;;;;;;5031651;28;20029;-66
2022/03/08 01:37:40;;;;;;;30.15;10.52;;;-2.20;99.90;;;;;;5021446;28;20042;-66
2022/03/08 01:40:09;;;;;;;33.15;11.32;;;-2.20;99.90;;;;;;5021246;28;20529;-66
2022/03/08 01:42:35;;;;;;;31.55;10.38;;;-2.20;99.90;;;;;;5029844;28;20037;-64
2022/03/08 01:45:02;;;;;;;31.20;10.95;;;-2.30;99.90;;;;;;5046822;28;20033;-65
2022/03/08 01:47:28;;;;;;;28.60;10.82;;;-2.30;99.90;;;;;;5028642;28;20037;-66
2022/03/08 01:49:54;;;;;;;36.47;11.68;;;-2.30;99.90;;;;;;5039511;28;20029;-66
2022/03/08 01:52:24;;;;;;;35.13;12.43;;;-2.30;99.90;;;;;;5025293;28;20109;-66
2022/03/08 01:54:51;;;;;;;34.45;11.57;;;-2.60;99.90;;;;;;5022890;28;20380;-66
2022/03/08 01:57:19;;;;;;;38.10;12.20;;;-2.80;99.90;;;;;;5027502;28;20500;-65
2022/03/08 01:59:45;;;;;;;35.75;11.95;;;-2.80;99.90;;;;;;5033076;28;20191;-66
2022/03/08 02:02:13;;;;;;;30.98;11.75;;;-2.90;99.90;;;;;;5034509;28;20037;-65
2022/03/08 02:04:39;;;;;;;32.80;11.02;;;-3.00;99.90;;;;;;5029952;28;20367;-64
2022/03/08 02:07:05;;;;;;;37.55;12.23;;;-3.10;99.90;;;;;;5024941;28;20043;-65
2022/03/08 02:09:30;;;;;;;35.85;12.82;;;-3.10;99.90;;;;;;5027552;28;20029;-65
2022/03/08 02:11:56;;;;;;;37.28;12.25;;;-3.10;99.90;;;;;;5032775;28;20044;-66
2022/03/08 02:14:22;;;;;;;36.70;12.30;;;-3.20;99.90;;;;;;5009153;28;20064;-66
2022/03/08 02:16:47;;;;;;;42.75;12.82;;;-3.40;99.90;;;;;;5016615;28;20462;-65
2022/03/08 02:19:14;;;;;;;35.05;11.57;;;-3.40;99.90;;;;;;5029345;28;20041;-65
2022/03/08 02:21:40;;;;;;;34.85;12.00;;;-3.40;99.90;;;;;;5025371;28;20061;-64
2022/03/08 02:24:06;;;;;;;35.00;12.45;;;-3.40;99.90;;;;;;5042244;28;20064;-66
2022/03/08 02:26:32;;;;;;;36.58;12.57;;;-3.40;99.90;;;;;;5036530;28;20026;-65
2022/03/08 02:29:03;;;;;;;37.00;12.35;;;-3.40;99.90;;;;;;5036405;28;20076;-66
2022/03/08 02:31:30;;;;;;;32.35;11.00;;;-3.40;99.90;;;;;;5033010;28;20029;-66
2022/03/08 02:33:56;;;;;;;33.58;12.15;;;-3.20;99.90;;;;;;5041886;28;20120;-66
2022/03/08 02:36:22;;;;;;;35.25;12.40;;;-3.30;99.90;;;;;;5031598;28;20463;-65
2022/03/08 02:38:47;;;;;;;35.70;12.07;;;-3.30;99.90;;;;;;5037229;28;20382;-65
2022/03/08 02:41:13;;;;;;;38.65;12.07;;;-3.40;99.90;;;;;;5032138;28;20037;-66
2022/03/08 02:43:39;;;;;;;32.65;10.82;;;-3.40;99.90;;;;;;5025983;28;20035;-64
2022/03/08 02:46:04;;;;;;;29.40;11.05;;;-3.20;99.90;;;;;;5032649;28;20065;-66
2022/03/08 02:48:30;;;;;;;32.08;11.32;;;-3.00;99.90;;;;;;5047565;28;20546;-66
2022/03/08 02:50:57;;;;;;;29.83;10.38;;;-2.90;99.90;;;;;;5037436;28;20465;-66
2022/03/08 02:53:23;;;;;;;36.70;11.70;;;-2.80;99.90;;;;;;5029966;28;20108;-66
2022/03/08 02:55:49;;;;;;;40.55;13.15;;;-2.90;99.90;;;;;;5014420;28;20101;-66
2022/03/08 02:58:15;;;;;;;35.47;12.80;;;-3.30;99.90;;;;;;5031181;28;20168;-66
2022/03/08 03:00:40;;;;;;;35.47;11.63;;;-3.40;99.90;;;;;;5029423;28;20057;-64
2022/03/08 03:03:08;;;;;;;34.65;11.60;;;-3.50;99.90;;;;;;5029161;28;20109;-67
2022/03/08 03:05:34;;;;;;;35.42;11.73;;;-3.50;99.90;;;;;;5016538;28;20033;-66
2022/03/08 03:08:00;;;;;;;33.95;11.27;;;-3.50;99.90;;;;;;5025846;28;20303;-64
2022/03/08 03:10:26;;;;;;;36.75;12.13;;;-3.50;99.90;;;;;;5029353;28;20489;-66
2022/03/08 03:12:54;;;;;;;30.95;11.15;;;-3.40;99.90;;;;;;5042341;28;20024;-66
2022/03/08 03:15:20;;;;;;;41.53;11.63;;;-3.50;99.90;;;;;;5028872;28;20083;-66
2022/03/08 03:17:46;;;;;;;37.08;12.00;;;-3.50;99.90;;;;;;5028054;28;20429;-66
2022/03/08 03:20:16;;;;;;;33.53;10.90;;;-3.50;99.90;;;;;;5034896;28;20059;-65
2022/03/08 03:22:42;;;;;;;33.47;11.77;;;-3.50;99.90;;;;;;5036607;28;20053;-65
2022/03/08 03:25:09;;;;;;;33.80;10.50;;;-3.50;99.90;;;;;;5016810;28;20087;-67
2022/03/08 03:27:35;;;;;;;37.42;13.00;;;-3.50;99.90;;;;;;5029652;28;20543;-65
2022/03/08 03:30:01;;;;;;;35.42;11.73;;;-3.50;99.90;;;;;;5027048;28;20037;-65
2022/03/08 03:32:27;;;;;;;37.33;11.88;;;-3.50;99.90;;;;;;5033308;28;20037;-64
2022/03/08 03:34:53;;;;;;;33.92;12.30;;;-3.50;99.90;;;;;;5019448;28;20033;-66
2022/03/08 03:37:18;;;;;;;37.80;12.02;;;-3.60;99.90;;;;;;5030704;28;20069;-65
2022/03/08 03:39:44;;;;;;;38.53;12.27;;;-3.70;99.90;;;;;;5027258;28;20025;-63
2022/03/08 03:42:10;;;;;;;36.47;11.80;;;-3.80;99.90;;;;;;5031282;28;20478;-65
2022/03/08 03:44:36;;;;;;;31.52;11.55;;;-3.90;99.90;;;;;;5033008;28;20082;-66
2022/03/08 03:47:02;;;;;;;26.48;10.23;;;-3.90;99.90;;;;;;5027802;28;20017;-66
2022/03/08 03:49:27;;;;;;;30.98;10.88;;;-3.90;99.90;;;;;;5030770;28;20059;-66
2022/03/08 03:51:53;;;;;;;30.38;11.10;;;-3.80;99.90;;;;;;5028782;28;20029;-66
2022/03/08 03:54:23;;;;;;;28.90;10.20;;;-3.70;99.90;;;;;;5036731;28;20037;-65
2022/03/08 03:56:49;;;;;;;27.25;10.50;;;-3.60;99.90;;;;;;5028044;28;20029;-66
2022/03/08 03:59:15;;;;;;;31.13;9.68;;;-3.50;99.90;;;;;;5029972;28;20037;-66
2022/03/08 04:01:41;;;;;;;27.77;9.95;;;-3.40;99.90;;;;;;5028880;28;20121;-66
2022/03/08 04:04:07;;;;;;;30.10;10.38;;;-3.30;99.90;;;;;;5009324;28;20422;-65
2022/03/08 04:06:34;;;;;;;39.83;12.05;;;-3.30;99.90;;;;;;5027870;28;20041;-65
2022/03/08 04:09:01;;;;;;;31.77;11.15;;;-3.30;99.90;;;;;;5029153;28;20042;-65
2022/03/08 04:11:27;;;;;;;37.95;12.27;;;-3.50;99.90;;;;;;5025698;28;20036;-66
2022/03/08 04:13:53;;;;;;;34.42;11.25;;;-3.70;99.90;;;;;;5028548;28;20033;-65
2022/03/08 04:16:18;;;;;;;36.80;12.77;;;-3.90;99.90;;;;;;5021742;28;20034;-65
2022/03/08 04:18:44;;;;;;;34.28;11.30;;;-4.00;99.90;;;;;;5025176;28;20033;-64
2022/03/08 04:21:09;;;;;;;34.85;10.48;;;-4.00;99.90;;;;;;5023127;28;20152;-64
2022/03/08 04:23:35;;;;;;;29.98;10.43;;;-3.80;99.90;;;;;;5034977;28;20049;-64
2022/03/08 04:26:01;;;;;;;31.98;11.38;;;-3.70;99.90;;;;;;5027114;28;20033;-65
2022/03/08 04:28:27;;;;;;;28.63;10.10;;;-3.50;99.90;;;;;;5035855;28;20041;-65
2022/03/08 04:30:52;;;;;;;34.78;10.98;;;-3.40;99.90;;;;;;5048609;28;20485;-65
2022/03/08 04:33:18;;;;;;;30.38;10.85;;;-3.30;99.90;;;;;;5043855;28;20022;-66
2022/03/08 04:35:44;;;;;;;31.48;10.98;;;-3.20;99.90;;;;;;5029150;28;20321;-66
2022/03/08 04:38:09;;;;;;;32.08;10.80;;;-3.20;99.90;;;;;;5028843;28;20037;-66
2022/03/08 04:40:35;;;;;;;32.53;11.30;;;-3.10;99.90;;;;;;5029425;28;20048;-65
2022/03/08 04:43:01;;;;;;;39.97;13.82;;;-3.10;99.90;;;;;;5028592;28;20426;-65
2022/03/08 04:45:26;;;;;;;40.35;14.65;;;-3.20;99.90;;;;;;5029428;28;20489;-65
2022/03/08 04:47:53;;;;;;;43.03;14.52;;;-3.50;99.90;;;;;;5028655;28;20124;-65
2022/03/08 04:50:18;;;;;;;41.47;14.70;;;-4.00;99.90;;;;;;5028436;28;20048;-65
2022/03/08 04:52:46;;;;;;;40.72;14.25;;;-4.20;99.90;;;;;;5029335;28;20030;-65
2022/03/08 04:55:13;;;;;;;42.30;13.75;;;-4.50;99.90;;;;;;5028500;28;20047;-65
2022/03/08 04:57:39;;;;;;;41.78;12.95;;;-4.60;99.90;;;;;;5029142;28;20033;-65
2022/03/08 05:00:07;;;;;;;43.42;12.52;;;-4.80;99.90;;;;;;5025832;28;20028;-65
2022/03/08 05:02:33;;;;;;;37.00;13.35;;;-4.80;99.90;;;;;;5024321;28;20037;-65
2022/03/08 05:04:58;;;;;;;38.22;11.52;;;-4.90;99.90;;;;;;5026924;28;20033;-65
2022/03/08 05:07:24;;;;;;;40.78;13.15;;;-4.80;99.90;;;;;;5025810;28;20059;-65
2022/03/08 05:09:50;;;;;;;56.05;18.10;;;-4.70;99.90;;;;;;5026822;28;20041;-63
2022/03/08 05:12:16;;;;;;;59.05;18.60;;;-4.60;99.90;;;;;;5028709;28;20026;-65
2022/03/08 05:14:41;;;;;;;40.10;12.88;;;-4.50;99.90;;;;;;5025284;28;20099;-65
2022/03/08 05:17:07;;;;;;;41.33;13.40;;;-4.40;99.90;;;;;;5018751;28;20029;-65
2022/03/08 05:19:33;;;;;;;33.50;10.93;;;-4.40;99.90;;;;;;5021870;28;20120;-65
2022/03/08 05:21:59;;;;;;;30.42;12.02;;;-4.40;99.90;;;;;;5022061;28;20087;-67
2022/03/08 05:24:25;;;;;;;40.00;12.98;;;-4.40;99.90;;;;;;5016455;28;20562;-65
2022/03/08 05:26:50;;;;;;;36.78;12.15;;;-4.40;99.90;;;;;;5031102;28;20478;-63
2022/03/08 05:29:16;;;;;;;78.35;22.90;;;-4.40;99.90;;;;;;5027498;28;20025;-64
2022/03/08 05:31:42;;;;;;;43.78;14.00;;;-4.40;99.90;;;;;;5028259;28;20053;-65
2022/03/08 05:34:08;;;;;;;48.45;16.45;;;-4.50;99.90;;;;;;5024931;28;20025;-65
2022/03/08 05:36:34;;;;;;;40.05;12.52;;;-4.50;99.90;;;;;;5025434;28;20128;-65
2022/03/08 05:39:00;;;;;;;33.75;11.63;;;-4.50;99.90;;;;;;5027908;28;20041;-65
2022/03/08 05:41:26;;;;;;;37.22;11.73;;;-4.50;99.90;;;;;;5028817;28;20061;-64
2022/03/08 05:43:52;;;;;;;42.13;13.32;;;-4.60;99.90;;;;;;5037906;28;20087;-64
2022/03/08 05:46:17;;;;;;;40.47;13.13;;;-4.60;99.90;;;;;;5048626;28;20032;-65
2022/03/08 05:48:43;;;;;;;42.50;13.27;;;-4.60;99.90;;;;;;5047345;28;20106;-65
2022/03/08 05:51:09;;;;;;;38.30;12.02;;;-4.60;99.90;;;;;;5047868;28;20135;-65
2022/03/08 05:53:35;;;;;;;40.10;12.15;;;-4.60;99.90;;;;;;5048773;28;20037;-65
2022/03/08 05:56:01;;;;;;;39.65;12.68;;;-4.50;99.90;;;;;;5047809;28;20049;-65
2022/03/08 05:58:26;;;;;;;42.28;13.65;;;-4.40;99.90;;;;;;5040038;28;20521;-65
2022/03/08 06:00:52;;;;;;;40.10;12.90;;;-4.40;99.90;;;;;;5028603;28;20049;-63
2022/03/08 06:03:18;;;;;;;38.25;12.05;;;-4.40;99.90;;;;;;5031798;28;20394;-65
2022/03/08 06:05:43;;;;;;;37.97;12.07;;;-4.40;99.90;;;;;;5032552;28;20064;-65
2022/03/08 06:08:09;;;;;;;34.13;11.57;;;-4.40;99.90;;;;;;5031702;28;20506;-65
2022/03/08 06:10:36;;;;;;;28.40;10.82;;;-4.40;99.90;;;;;;5032329;28;20029;-65
2022/03/08 06:13:02;;;;;;;32.13;11.43;;;-4.30;99.90;;;;;;5046227;28;20557;-65
2022/03/08 06:15:27;;;;;;;30.65;10.63;;;-4.00;99.90;;;;;;5052306;28;20094;-65
2022/03/08 06:17:53;;;;;;;35.90;12.32;;;-3.70;99.90;;;;;;5051417;28;20170;-64
2022/03/08 06:20:19;;;;;;;35.55;11.43;;;-3.50;99.90;;;;;;5051953;28;20033;-65
2022/03/08 06:22:44;;;;;;;29.83;10.75;;;-3.30;99.90;;;;;;5039257;28;20076;-65
2022/03/08 06:25:11;;;;;;;32.70;11.00;;;-3.10;99.90;;;;;;5031220;28;20128;-65
2022/03/08 06:27:37;;;;;;;36.90;11.45;;;-3.00;99.90;;;;;;5030873;28;20133;-65
2022/03/08 06:30:03;;;;;;;34.35;10.63;;;-3.00;99.90;;;;;;5031301;28;20398;-65
2022/03/08 06:32:29;;;;;;;38.63;11.45;;;-2.90;99.90;;;;;;5032036;28;20025;-65
2022/03/08 06:34:56;;;;;;;32.00;11.30;;;-2.80;99.90;;;;;;5030765;28;20045;-64
2022/03/08 06:37:22;;;;;;;31.58;11.32;;;-2.70;99.90;;;;;;5031535;28;20041;-65
2022/03/08 06:39:48;;;;;;;34.33;10.98;;;-2.50;99.90;;;;;;5031873;28;20036;-65
2022/03/08 06:42:14;;;;;;;32.72;11.13;;;-2.40;99.90;;;;;;5042536;28;20025;-65
2022/03/08 06:44:40;;;;;;;29.13;10.68;;;-2.30;99.90;;;;;;5050385;28;20031;-65
2022/03/08 06:47:08;;;;;;;33.50;11.50;;;-2.10;99.90;;;;;;5050817;28;20036;-64
2022/03/08 06:49:34;;;;;;;29.95;10.85;;;-2.00;99.90;;;;;;5051634;28;20133;-65
2022/03/08 06:52:00;;;;;;;31.38;10.75;;;-1.90;99.90;;;;;;5050480;28;20071;-64
2022/03/08 06:54:26;;;;;;;32.13;11.57;;;-1.80;99.90;;;;;;5051560;28;20037;-65
2022/03/08 06:56:52;;;;;;;36.83;10.20;;;-1.80;99.90;;;;;;5040279;28;20084;-65
2022/03/08 06:59:18;;;;;;;32.03;11.38;;;-1.70;99.90;;;;;;5030619;28;20041;-64
2022/03/08 07:01:44;;;;;;;30.90;10.65;;;-1.70;99.90;;;;;;5030041;28;20813;-65
2022/03/08 07:04:10;;;;;;;33.45;10.93;;;-1.70;99.90;;;;;;5030892;28;20064;-64
2022/03/08 07:06:36;;;;;;;27.92;9.90;;;-1.50;99.90;;;;;;5031317;28;20029;-66
2022/03/08 07:09:02;;;;;;;29.33;11.23;;;-1.40;99.90;;;;;;5030528;28;20091;-65
2022/03/08 07:11:28;;;;;;;31.75;10.40;;;-1.30;99.90;;;;;;5030957;28;20065;-65
2022/03/08 07:13:53;;;;;;;30.38;10.20;;;-1.10;99.90;;;;;;5030969;28;20068;-65
2022/03/08 07:16:19;;;;;;;25.52;9.73;;;-1.00;99.90;;;;;;5030583;28;20037;-65
2022/03/08 07:18:45;;;;;;;26.85;9.73;;;-0.90;99.90;;;;;;5031834;28;20030;-65
2022/03/08 07:21:10;;;;;;;29.10;11.10;;;-0.80;99.90;;;;;;5030093;28;20505;-65
2022/03/08 07:23:36;;;;;;;29.50;10.55;;;-0.70;99.90;;;;;;5030781;28;20050;-66
2022/03/08 07:26:02;;;;;;;30.52;10.75;;;-0.50;99.90;;;;;;5030193;28;20033;-65
2022/03/08 07:28:28;;;;;;;28.20;10.50;;;-0.50;99.90;;;;;;5029515;28;20034;-66
2022/03/08 07:30:53;;;;;;;29.33;10.13;;;-0.40;99.90;;;;;;5030562;28;20083;-66
2022/03/08 07:33:19;;;;;;;28.55;10.20;;;-0.30;99.90;;;;;;5036285;28;20025;-66
2022/03/08 07:35:45;;;;;;;29.25;10.65;;;-0.20;99.90;;;;;;5050554;28;20389;-66
2022/03/08 07:38:11;;;;;;;26.52;10.05;;;0.00;99.90;;;;;;5049995;28;20037;-66
2022/03/08 07:40:36;;;;;;;28.70;10.18;;;0.10;99.90;;;;;;5050724;28;20044;-66
2022/03/08 07:43:03;;;;;;;29.90;10.90;;;0.30;99.90;;;;;;5049997;28;20373;-66
2022/03/08 07:45:33;;;;;;;25.98;9.57;;;0.40;99.90;;;;;;5050562;28;20055;-67
2022/03/08 07:47:58;;;;;;;26.25;9.80;;;0.60;99.90;;;;;;5044130;28;20026;-64
2022/03/08 07:50:25;;;;;;;26.58;9.90;;;0.80;99.90;;;;;;5030261;28;20056;-66
2022/03/08 07:52:52;;;;;;;29.67;10.48;;;0.90;99.90;;;;;;5030587;28;20049;-65
2022/03/08 07:55:18;;;;;;;26.15;9.63;;;1.00;99.90;;;;;;5029773;28;20033;-67
2022/03/08 07:57:43;;;;;;;28.60;10.30;;;1.20;99.90;;;;;;5030437;28;20037;-67
2022/03/08 08:00:10;;;;;;;29.10;10.63;;;1.30;99.90;;;;;;5029486;28;20455;-66
2022/03/08 08:02:37;;;;;;;23.75;9.00;;;1.40;99.90;;;;;;5034575;28;20470;-67
2022/03/08 08:05:03;;;;;;;21.98;9.07;;;1.60;99.90;;;;;;5049267;28;20068;-66
2022/03/08 08:07:29;;;;;;;22.90;8.60;;;1.60;99.90;;;;;;5049817;28;20033;-66
2022/03/08 08:09:55;;;;;;;21.55;9.27;;;1.70;99.90;;;;;;5049739;28;20493;-66
2022/03/08 08:12:20;;;;;;;17.55;7.88;;;1.80;99.90;;;;;;5049534;28;20548;-67
2022/03/08 08:14:47;;;;;;;22.17;8.60;;;1.90;99.90;;;;;;5050014;28;20033;-67
2022/03/08 08:17:13;;;;;;;19.20;7.78;;;2.10;99.90;;;;;;5048881;28;20436;-67
2022/03/08 08:19:38;;;;;;;21.50;8.70;;;2.10;99.90;;;;;;5049837;28;20032;-67
2022/03/08 08:22:04;;;;;;;21.13;9.18;;;2.30;99.90;;;;;;5038950;28;20043;-66
2022/03/08 08:24:30;;;;;;;21.02;8.82;;;2.40;99.90;;;;;;5029469;28;20049;-67
2022/03/08 08:26:56;;;;;;;19.00;7.75;;;2.60;99.90;;;;;;5029513;28;20037;-68
2022/03/08 08:29:22;;;;;;;18.38;7.38;;;2.70;98.10;;;;;;5028404;28;20018;-67
2022/03/08 08:31:47;;;;;;;18.92;7.70;;;2.80;96.60;;;;;;5029773;28;20037;-67
2022/03/08 08:34:13;;;;;;;17.45;7.55;;;2.80;95.30;;;;;;5028842;28;20030;-66
2022/03/08 08:36:39;;;;;;;17.75;7.18;;;2.80;94.80;;;;;;5037404;28;20083;-67
2022/03/08 08:39:04;;;;;;;20.65;7.30;;;2.90;93.30;;;;;;5048558;28;20033;-66
2022/03/08 08:41:30;;;;;;;20.42;7.57;;;3.10;92.50;;;;;;5048265;28;20091;-66
2022/03/08 08:43:57;;;;;;;19.67;7.45;;;3.10;91.00;;;;;;5049660;28;20025;-65
2022/03/08 08:46:22;;;;;;;19.67;6.55;;;3.10;90.70;;;;;;5033054;28;20456;-66
2022/03/08 08:48:48;;;;;;;18.95;7.25;;;3.20;89.40;;;;;;5029829;28;20117;-66
2022/03/08 08:51:14;;;;;;;20.20;7.25;;;3.30;87.80;;;;;;5028481;28;20041;-67
2022/03/08 08:53:39;;;;;;;17.73;7.05;;;3.40;86.80;;;;;;5029722;28;20398;-66
2022/03/08 08:56:05;;;;;;;19.33;7.45;;;3.60;88.10;;;;;;5028537;28;20037;-66
2022/03/08 08:58:31;;;;;;;16.52;7.15;;;3.90;85.20;;;;;;5029200;28;20038;-65
2022/03/08 09:00:57;;;;;;;18.25;7.15;;;4.00;84.20;;;;;;5029251;28;20092;-64
2022/03/08 09:03:23;;;;;;;15.55;7.18;;;4.20;81.30;;;;;;5028256;28;20207;-67
2022/03/08 09:05:49;;;;;;;16.42;7.00;;;4.20;79.50;;;;;;5029288;28;20481;-65
2022/03/08 09:08:15;;;;;;;15.40;6.65;;;4.30;77.80;;;;;;5028283;28;20044;-65
2022/03/08 09:10:41;;;;;;;16.15;6.82;;;4.50;80.50;;;;;;5047914;28;20032;-67
2022/03/08 09:13:07;;;;;;;16.77;6.60;;;4.70;73.90;;;;;;5033925;28;20033;-67
2022/03/08 09:15:33;;;;;;;13.10;5.43;;;4.60;74.10;;;;;;5029433;28;20029;-68
2022/03/08 09:17:59;;;;;;;15.40;6.35;;;4.80;72.10;;;;;;5047440;28;20716;-66
2022/03/08 09:20:26;;;;;;;17.95;7.30;;;4.70;68.70;;;;;;5048224;28;20029;-67
2022/03/08 09:22:53;;;;;;;13.43;5.93;;;4.40;67.40;;;;;;5045399;28;20045;-66
2022/03/08 09:25:19;;;;;;;12.07;5.70;;;4.50;69.10;;;;;;5044772;28;20049;-68
2022/03/08 09:27:45;;;;;;;14.63;5.22;;;4.50;67.40;;;;;;5046582;28;20067;-68
2022/03/08 09:30:12;;;;;;;13.40;5.65;;;4.40;68.10;;;;;;5048043;28;20037;-67
2022/03/08 09:32:38;;;;;;;17.10;5.32;;;4.40;67.40;;;;;;5048615;28;20500;-67
2022/03/08 09:35:04;;;;;;;12.60;5.07;;;4.40;65.80;;;;;;5048528;28;20060;-64
2022/03/08 09:37:30;;;;;;;10.23;4.68;;;4.50;66.10;;;;;;5051563;28;20063;-67
2022/03/08 09:39:56;;;;;;;10.80;4.95;;;4.70;65.60;;;;;;5052885;28;20029;-67
2022/03/08 09:42:22;;;;;;;13.75;5.65;;;4.70;64.30;;;;;;5034815;28;20040;-67
2022/03/08 09:44:48;;;;;;;16.38;6.00;;;5.00;65.40;;;;;;5032882;28;20029;-67
2022/03/08 09:47:15;;;;;;;12.07;4.85;;;5.30;64.50;;;;;;5031867;28;20128;-67
2022/03/08 09:49:41;;;;;;;11.90;4.40;;;5.30;61.10;;;;;;5032610;28;20117;-66
2022/03/08 09:52:07;;;;;;;11.00;4.50;;;5.20;59.90;;;;;;5032145;28;20108;-64
2022/03/08 09:54:33;;;;;;;11.25;4.75;;;5.20;60.60;;;;;;5032547;28;20056;-66
2022/03/08 09:56:59;;;;;;;14.32;5.25;;;5.20;59.40;;;;;;5048922;28;20033;-66
2022/03/08 09:59:29;;;;;;;12.57;4.55;;;5.20;59.90;;;;;;5051385;28;20218;-67
2022/03/08 10:01:55;;;;;;;9.60;4.55;;;5.20;60.00;;;;;;5052461;28;20025;-66
2022/03/08 10:04:21;;;;;;;10.80;4.15;;;5.30;59.50;;;;;;5051627;28;20041;-66
2022/03/08 10:06:51;;;;;;;13.40;5.20;;;5.30;58.80;;;;;;5052544;28;20480;-67
2022/03/08 10:09:20;;;;;;;11.95;5.03;;;5.30;59.50;;;;;;5051813;28;20067;-66
2022/03/08 10:11:50;;;;;;;10.85;4.97;;;5.40;59.20;;;;;;5034049;28;20367;-66
2022/03/08 10:14:29;;;;;;;14.65;4.90;;;5.40;59.00;;;;;;5031893;28;20151;-66
2022/03/08 10:16:55;;;;;;;11.40;4.65;;;5.60;58.60;;;;;;5032291;28;20034;-66
2022/03/08 10:19:21;;;;;;;13.15;5.30;;;5.70;58.40;;;;;;5049465;28;20367;-66
2022/03/08 10:21:51;;;;;;;15.20;5.60;;;5.90;57.60;;;;;;5052083;28;20037;-67
2022/03/08 10:24:23;;;;;;;12.70;4.55;;;6.10;57.80;;;;;;5033366;28;20065;-67
2022/03/08 10:27:03;;;;;;;12.60;5.05;;;6.00;57.80;;;;;;5032345;28;20164;-67
2022/03/08 10:29:30;;;;;;;10.52;4.95;;;6.00;57.00;;;;;;5029120;28;20025;-67
2022/03/08 10:32:04;;;;;;;10.20;5.00;;;6.00;57.20;;;;;;5027119;28;20108;-67
2022/03/08 10:34:31;;;;;;;9.70;4.55;;;6.10;57.50;;;;;;5030432;28;20493;-66
2022/03/08 10:37:13;;;;;;;11.95;4.70;;;6.20;56.20;;;;;;5027261;28;20048;-66
2022/03/08 10:39:56;;;;;;;12.18;4.45;;;6.40;56.40;;;;;;5030171;28;20026;-67
2022/03/08 10:42:30;;;;;;;8.70;4.55;;;6.20;55.10;;;;;;5028659;28;20026;-66
2022/03/08 10:45:14;;;;;;;9.63;4.95;;;6.40;55.90;;;;;;5031838;28;20029;-67
2022/03/08 10:47:53;;;;;;;9.75;4.60;;;6.80;55.60;;;;;;5033095;28;20069;-66
2022/03/08 10:50:28;;;;;;;10.43;5.18;;;7.10;54.40;;;;;;5032639;28;20040;-67
2022/03/08 10:52:57;;;;;;;9.02;4.30;;;7.00;54.40;;;;;;5031901;28;20351;-67
2022/03/08 10:55:28;;;;;;;12.05;5.70;;;6.90;53.50;;;;;;5030766;28;20033;-67
2022/03/08 10:57:56;;;;;;;15.25;6.00;;;7.00;54.60;;;;;;5040621;28;20049;-67
2022/03/08 11:00:28;;;;;;;11.98;5.10;;;7.20;54.50;;;;;;5050633;28;20051;-67
2022/03/08 11:03:02;;;;;;;12.52;5.32;;;7.40;53.90;;;;;;5051151;28;20416;-68
2022/03/08 11:05:33;;;;;;;11.60;4.90;;;7.30;53.70;;;;;;5050555;28;20025;-68
2022/03/08 11:07:59;;;;;;;13.35;5.85;;;7.20;53.00;;;;;;5051673;28;20033;-66
2022/03/08 11:10:29;;;;;;;10.90;4.85;;;7.10;52.80;;;;;;5050498;28;20025;-66
2022/03/08 11:12:56;;;;;;;11.18;4.95;;;7.20;52.60;;;;;;5035927;28;20025;-66
2022/03/08 11:15:23;;;;;;;13.27;4.72;;;7.20;52.90;;;;;;5030353;28;20057;-68
2022/03/08 11:17:51;;;;;;;9.32;4.60;;;7.70;52.60;;;;;;5031075;28;20033;-66
2022/03/08 11:20:18;;;;;;;10.68;4.63;;;7.70;50.30;;;;;;5030052;28;20116;-66
2022/03/08 11:22:46;;;;;;;9.15;3.80;;;7.80;49.70;;;;;;5030872;28;20045;-66
2022/03/08 11:25:16;;;;;;;9.73;4.13;;;7.60;47.80;;;;;;5030231;28;20474;-63
2022/03/08 11:27:44;;;;;;;12.43;4.63;;;7.60;48.70;;;;;;5045866;28;20619;-65
2022/03/08 11:30:13;;;;;;;14.00;5.53;;;7.50;49.60;;;;;;5050744;28;20033;-62
2022/03/08 11:32:59;;;;;;;14.73;5.50;;;7.50;50.00;;;;;;5049499;28;20037;-67
2022/03/08 11:35:42;;;;;;;20.38;6.10;;;7.70;50.80;;;;;;5047836;28;20021;-68
2022/03/08 11:38:13;;;;;;;9.50;4.28;;;8.00;50.90;;;;;;5029211;28;20038;-68
2022/03/08 11:40:46;;;;;;;;;;;7.80;49.40;;;;;;5031041;28;20164;-65
2022/03/08 11:43:12;;;;;;;10.32;4.43;;;7.70;49.40;;;;;;5027372;28;20019;-63
2022/03/08 11:45:37;;;;;;;10.65;4.30;;;7.80;48.90;;;;;;5030305;28;20026;-66
2022/03/08 11:48:09;;;;;;;8.48;4.47;;;8.10;48.80;;;;;;5031392;28;20033;-68
2022/03/08 11:50:45;;;;;;;12.20;4.80;;;8.30;48.80;;;;;;5024955;28;20045;-67
2022/03/08 11:53:13;;;;;;;11.48;4.80;;;8.00;48.70;;;;;;5034144;28;20041;-63
2022/03/08 11:55:45;;;;;;;8.48;4.03;;;8.10;48.60;;;;;;5021361;28;20026;-66
2022/03/08 11:58:41;;;;;;;20.40;4.50;;;7.80;48.90;;;;;;5030223;28;20037;-63
2022/03/08 12:01:08;;;;;;;9.80;3.85;;;7.90;48.90;;;;;;5023020;28;20049;-65
2022/03/08 12:03:33;;;;;;;10.48;4.35;;;8.20;47.80;;;;;;5008615;28;20687;-66
2022/03/08 12:06:07;;;;;;;8.00;4.30;;;8.50;47.30;;;;;;5018194;28;20021;-65
2022/03/08 12:08:39;;;;;;;10.07;3.72;;;8.70;47.00;;;;;;5049391;28;20071;-66
2022/03/08 12:11:14;;;;;;;10.60;4.13;;;8.70;45.80;;;;;;5026454;28;20026;-67
2022/03/08 12:13:47;;;;;;;9.18;3.85;;;8.50;46.40;;;;;;5024324;28;20041;-67
2022/03/08 12:16:25;;;;;;;8.23;3.65;;;8.90;45.80;;;;;;5029969;28;20109;-64
2022/03/08 12:18:54;;;;;;;8.82;4.50;;;8.90;43.90;;;;;;5032115;28;20025;-66
2022/03/08 12:21:27;;;;;;;12.02;4.30;;;9.20;44.80;;;;;;5030993;28;20038;-67
2022/03/08 12:24:10;;;;;;;8.00;4.15;;;9.40;44.10;;;;;;5029408;28;20667;-67
2022/03/08 12:26:43;;;;;;;8.27;4.20;;;9.20;43.30;;;;;;5028560;28;20030;-68
2022/03/08 12:29:21;;;;;;;12.38;4.47;;;9.00;43.70;;;;;;5029970;28;20521;-67
2022/03/08 12:31:58;;;;;;;10.52;4.57;;;9.30;45.00;;;;;;5029752;28;20055;-67
2022/03/08 12:34:45;;;;;;;9.77;4.75;;;9.50;44.70;;;;;;5009244;28;20034;-67